Aetna, Tennessee
Current Conditions -  °F | °C
As of 9:35 AM on Friday 24 Oct 2014 (Local Time) from KMRC Reporting Station
NA  
Wind Chill: 54°   Ceiling: NA
Heat Index: 54°   Visibility: NA
Dew Point: 54°   Wind: 0mph
Humidity: 100%   Direction: NA
Pressure: 30.12"   Gusts: NA
Location:  35.7514°N, 87.5392°W
Report Text: KMRC 241435Z AUTO 00000KT 12/12 A3012 RMK
Loading
Personal Weather Stations






























Interactive Weather Map
Tropical Storm Tracking
New forecast layout! Learn more

10-Day Weather Forecast

Advertisements
Track Severe Weather on mobile